createdAt,value
2022-07-25T00:02:02.833Z,62.20
2022-07-25T00:04:31.401Z,62.40
2022-07-25T00:06:59.450Z,62.00
2022-07-25T00:09:27.133Z,62.30
2022-07-25T00:11:54.638Z,62.10
2022-07-25T00:14:22.353Z,61.90
2022-07-25T00:39:05.274Z,61.00
2022-07-25T00:41:33.226Z,61.50
2022-07-25T00:44:00.850Z,61.70
2022-07-25T00:46:28.704Z,61.40
2022-07-25T00:48:56.894Z,61.40
2022-07-25T00:51:26.396Z,61.50
2022-07-25T00:53:54.158Z,61.40
2022-07-25T00:56:21.832Z,61.70
2022-07-25T01:06:14.812Z,61.50
2022-07-25T01:13:39.860Z,61.70
2022-07-25T01:30:57.610Z,62.00
2022-07-25T01:33:25.163Z,62.30
2022-07-25T01:35:52.968Z,62.70
2022-07-25T01:38:20.822Z,62.50
2022-07-25T01:40:48.432Z,62.90
2022-07-25T01:43:16.124Z,62.90
2022-07-25T01:45:43.668Z,63.40
2022-07-25T01:53:06.960Z,63.00
2022-07-25T01:58:02.581Z,62.50
2022-07-25T02:05:44.926Z,62.50
2022-07-25T02:08:12.395Z,63.10
2022-07-25T02:10:40.138Z,63.00
2022-07-25T02:13:07.994Z,63.00
2022-07-25T02:15:36.473Z,63.10
2022-07-25T02:18:04.513Z,62.80
2022-07-25T02:20:31.990Z,63.30
2022-07-25T02:22:59.815Z,63.40
2022-07-25T02:25:27.367Z,63.50
2022-07-25T02:27:55.256Z,63.80
2022-07-25T02:30:23.093Z,64.00
2022-07-25T02:32:51.009Z,64.00
2022-07-25T02:35:18.609Z,63.90
2022-07-25T02:37:46.201Z,64.00
2022-07-25T02:40:13.877Z,64.50
2022-07-25T02:42:41.622Z,64.70
2022-07-25T02:47:37.524Z,64.10
2022-07-25T02:50:05.930Z,64.70
2022-07-25T02:52:33.550Z,64.00
2022-07-25T03:02:34.909Z,63.90
2022-07-25T03:05:03.375Z,64.30
2022-07-25T03:07:31.142Z,64.30
2022-07-25T03:09:59.440Z,65.00
2022-07-25T03:17:23.006Z,74.60
2022-07-25T03:22:18.453Z,63.60
2022-07-25T03:24:46.124Z,64.10
2022-07-25T03:27:15.045Z,64.10
2022-07-25T03:29:42.675Z,64.30
2022-07-25T03:32:10.602Z,64.30
2022-07-25T03:34:38.262Z,64.60
2022-07-25T03:37:05.920Z,64.40
2022-07-25T03:39:33.744Z,64.80
2022-07-25T03:42:01.446Z,64.70
2022-07-25T03:44:29.238Z,65.20
2022-07-25T03:46:56.710Z,65.40
2022-07-25T03:49:24.157Z,65.40
2022-07-25T03:51:51.746Z,65.90
2022-07-25T03:54:19.858Z,66.10
2022-07-25T04:41:23.550Z,67.40
2022-07-25T04:43:51.026Z,68.20
2022-07-25T04:46:23.424Z,67.90
2022-07-25T04:48:51.929Z,68.10
2022-07-25T04:51:20.030Z,67.60
2022-07-25T04:53:47.987Z,67.80
2022-07-25T04:56:15.661Z,67.50
2022-07-25T04:58:43.136Z,67.20
2022-07-25T05:01:10.861Z,67.10
2022-07-25T05:03:38.490Z,66.50
2022-07-25T05:06:06.465Z,66.40
2022-07-25T05:08:33.935Z,66.20
2022-07-25T05:11:02.588Z,65.50
2022-07-25T05:13:30.221Z,65.60
2022-07-25T05:15:57.881Z,66.40
2022-07-25T05:18:25.516Z,66.60
2022-07-25T05:20:56.203Z,66.20
2022-07-25T05:23:23.801Z,65.90
2022-07-25T05:25:51.638Z,65.60
2022-07-25T05:28:19.186Z,65.90
2022-07-25T05:38:10.814Z,64.80
2022-07-25T05:40:38.452Z,65.50
2022-07-25T05:43:05.986Z,64.50
2022-07-25T05:45:33.624Z,63.60
2022-07-25T05:50:29.429Z,61.30
2022-07-25T05:53:02.654Z,61.20
2022-07-25T05:55:30.288Z,61.00
2022-07-25T05:57:58.078Z,60.20
2022-07-25T06:02:54.732Z,72.00
2022-07-25T06:05:23.088Z,58.60
2022-07-25T06:07:50.601Z,57.60
2022-07-25T06:10:18.174Z,57.60
2022-07-25T06:12:45.653Z,56.50
2022-07-25T06:15:22.635Z,55.70
2022-07-25T06:25:18.066Z,52.70
2022-07-25T06:27:45.911Z,52.90
2022-07-25T06:30:19.648Z,52.60
2022-07-25T06:32:50.193Z,51.90
2022-07-25T06:35:18.873Z,51.70
2022-07-25T06:37:47.092Z,51.10
2022-07-25T14:00:45.592Z,31.00
2022-07-25T14:03:13.473Z,31.70
2022-07-25T14:05:42.010Z,32.00
2022-07-25T14:08:09.924Z,32.20
2022-07-25T14:10:37.773Z,32.50
2022-07-25T14:13:09.276Z,32.60
2022-07-25T14:15:38.790Z,33.10
2022-07-25T14:18:06.598Z,33.60
2022-07-25T14:20:34.469Z,33.70
2022-07-25T14:23:02.310Z,34.20
2022-07-25T14:25:30.142Z,34.70
2022-07-25T14:28:00.405Z,34.90
2022-07-25T14:30:27.947Z,36.20
2022-07-25T14:32:55.586Z,36.10
2022-07-25T14:35:24.134Z,38.80
2022-07-25T14:37:54.319Z,39.80
2022-07-25T14:40:22.188Z,39.60
2022-07-25T14:42:49.689Z,40.30
2022-07-25T14:45:19.094Z,39.80
2022-07-25T14:47:46.603Z,40.50
2022-07-25T14:50:14.413Z,40.00
2022-07-25T14:52:42.394Z,39.90
2022-07-25T14:55:10.711Z,40.20
2022-07-25T14:57:38.547Z,39.80
2022-07-25T15:00:07.317Z,39.60
2022-07-25T15:02:34.916Z,39.90
2022-07-25T15:05:02.683Z,40.20
2022-07-25T15:07:30.533Z,39.20
2022-07-25T15:09:58.241Z,39.40
2022-07-25T15:12:25.966Z,39.00
2022-07-25T15:14:53.541Z,40.00
2022-07-25T15:17:21.536Z,38.80
2022-07-25T15:19:49.740Z,37.30
2022-07-25T15:30:03.022Z,35.20
2022-07-25T15:32:30.513Z,35.60
2022-07-25T15:34:58.175Z,35.50
2022-07-25T15:37:25.881Z,35.70
2022-07-25T15:39:53.329Z,36.50
2022-07-25T15:42:22.651Z,36.50
2022-07-25T15:45:22.259Z,36.90
2022-07-25T15:47:48.843Z,36.70
2022-07-25T15:50:20.122Z,35.60
2022-07-25T15:52:50.746Z,36.10
2022-07-25T15:55:18.493Z,36.10
2022-07-25T15:57:46.331Z,36.70
2022-07-25T16:00:14.518Z,36.50
2022-07-25T16:02:42.418Z,36.50
2022-07-25T16:05:10.433Z,36.90
2022-07-25T16:07:37.908Z,36.40
2022-07-25T16:10:06.588Z,36.30
2022-07-25T16:12:34.347Z,36.50
2022-07-25T16:15:01.973Z,35.70
2022-07-25T16:17:29.599Z,36.10
2022-07-25T16:19:57.873Z,36.50
2022-07-25T16:22:28.453Z,36.20
2022-07-25T16:24:56.055Z,36.50
2022-07-25T16:27:24.166Z,36.40
2022-07-25T16:29:54.059Z,37.00
2022-07-25T16:32:22.019Z,37.70
2022-07-25T16:34:57.260Z,36.80
2022-07-25T16:37:24.875Z,37.10
2022-07-25T16:39:52.512Z,37.20
2022-07-25T16:42:20.646Z,37.50
2022-07-25T16:44:48.826Z,38.20
2022-07-25T16:47:16.547Z,38.70
2022-07-25T16:49:44.549Z,38.90
2022-07-25T16:52:12.410Z,38.90
2022-07-25T16:54:42.340Z,38.90
2022-07-25T16:57:09.865Z,39.00
2022-07-25T16:59:37.540Z,39.20
2022-07-25T17:02:05.568Z,39.60
2022-07-25T17:04:33.923Z,39.90
2022-07-25T17:07:02.241Z,40.00
2022-07-25T17:09:29.870Z,40.70
2022-07-25T17:11:57.633Z,40.90
2022-07-25T17:14:30.023Z,40.80
2022-07-25T17:16:58.643Z,41.10
2022-07-25T17:19:26.275Z,41.70
2022-07-25T17:21:53.909Z,42.30
2022-07-25T17:24:21.293Z,43.00
2022-07-25T17:26:49.209Z,43.80
2022-07-25T17:29:17.657Z,44.10
2022-07-25T17:31:45.503Z,44.50
2022-07-25T17:34:13.316Z,44.80
2022-07-25T17:36:41.168Z,44.90
2022-07-25T17:39:11.342Z,45.20
2022-07-25T17:41:41.253Z,45.70
2022-07-25T17:44:12.068Z,46.60
2022-07-25T17:46:40.148Z,46.60
2022-07-25T17:49:07.844Z,48.50
2022-07-25T17:51:35.458Z,50.10
2022-07-25T17:54:03.899Z,50.10
2022-07-25T17:56:31.902Z,51.00
2022-07-25T18:01:27.702Z,51.90
2022-07-25T18:03:56.514Z,52.20
2022-07-25T18:11:25.644Z,52.20
2022-07-25T18:13:53.482Z,53.20
2022-07-25T18:16:21.151Z,53.40
2022-07-25T18:18:48.902Z,53.70
2022-07-25T18:21:16.752Z,53.90
2022-07-25T18:23:44.321Z,54.30
2022-07-25T18:26:11.963Z,54.60
2022-07-25T18:31:07.381Z,54.70
2022-07-25T18:33:35.230Z,55.70
2022-07-25T18:36:07.388Z,56.10
2022-07-25T18:38:36.700Z,57.30
2022-07-25T18:41:29.187Z,59.40
2022-07-25T18:43:54.173Z,61.00
2022-07-25T18:46:22.232Z,64.40
2022-07-25T18:48:51.125Z,66.80
2022-07-25T18:51:19.288Z,68.10
2022-07-25T18:53:48.549Z,70.50
2022-07-25T18:56:17.541Z,71.50
2022-07-25T18:58:45.865Z,73.30
2022-07-25T19:01:14.126Z,74.10
2022-07-25T19:08:38.906Z,75.10
2022-07-25T19:11:07.199Z,76.10
2022-07-25T19:13:51.554Z,75.10
2022-07-25T19:16:21.068Z,74.90
2022-07-25T19:18:49.123Z,75.20
2022-07-25T19:23:50.541Z,77.50
2022-07-25T19:28:49.513Z,78.60
2022-07-25T19:31:17.948Z,79.40
2022-07-25T19:36:14.887Z,79.10
2022-07-25T19:51:04.221Z,81.20
